sensor_id;sensor_type;location;lat;lon;timestamp;temperature;humidity
23869;DHT22;12115;47.128;15.422;2023-02-01T00:00:16;-1.30;99.90
23869;DHT22;12115;47.128;15.422;2023-02-01T00:02:43;-1.30;99.90
23869;DHT22;12115;47.128;15.422;2023-02-01T00:05:10;-1.30;99.90
23869;DHT22;12115;47.128;15.422;2023-02-01T00:07:37;-1.40;99.90
23869;DHT22;12115;47.128;15.422;2023-02-01T00:10:05;-1.30;99.90
23869;DHT22;12115;47.128;15.422;2023-02-01T00:12:32;-1.30;99.90
23869;DHT22;12115;47.128;15.422;2023-02-01T00:14:59;-1.40;99.90
23869;DHT22;12115;47.128;15.422;2023-02-01T00:17:26;-1.40;99.90
23869;DHT22;12115;47.128;15.422;2023-02-01T00:19:54;-1.40;99.90
23869;DHT22;12115;47.128;15.422;2023-02-01T00:22:22;-1.40;99.90
23869;DHT22;12115;47.128;15.422;2023-02-01T00:24:49;-1.40;99.90
23869;DHT22;12115;47.128;15.422;2023-02-01T00:31:16;-1.50;99.90
23869;DHT22;12115;47.128;15.422;2023-02-01T00:33:46;-1.50;99.90
23869;DHT22;12115;47.128;15.422;2023-02-01T00:36:14;-1.50;99.90
23869;DHT22;12115;47.128;15.422;2023-02-01T00:38:41;-1.50;99.90
23869;DHT22;12115;47.128;15.422;2023-02-01T00:41:13;-1.50;99.90
23869;DHT22;12115;47.128;15.422;2023-02-01T00:43:40;-1.50;99.90
23869;DHT22;12115;47.128;15.422;2023-02-01T00:46:08;-1.50;99.90
23869;DHT22;12115;47.128;15.422;2023-02-01T00:48:35;-1.50;99.90
23869;DHT22;12115;47.128;15.422;2023-02-01T00:51:04;-1.50;99.90
23869;DHT22;12115;47.128;15.422;2023-02-01T00:53:32;-1.60;99.90
23869;DHT22;12115;47.128;15.422;2023-02-01T00:55:59;-1.60;99.90
23869;DHT22;12115;47.128;15.422;2023-02-01T00:58:26;-1.60;99.90
23869;DHT22;12115;47.128;15.422;2023-02-01T01:01:14;-1.60;99.90
23869;DHT22;12115;47.128;15.422;2023-02-01T01:03:43;-1.60;99.90
23869;DHT22;12115;47.128;15.422;2023-02-01T01:06:12;-1.70;99.90
23869;DHT22;12115;47.128;15.422;2023-02-01T01:08:39;-1.70;99.90
23869;DHT22;12115;47.128;15.422;2023-02-01T01:11:07;-1.60;99.90
23869;DHT22;12115;47.128;15.422;2023-02-01T01:13:35;-1.60;99.90
23869;DHT22;12115;47.128;15.422;2023-02-01T01:16:03;-1.70;99.90
23869;DHT22;12115;47.128;15.422;2023-02-01T01:18:30;-1.80;99.90
23869;DHT22;12115;47.128;15.422;2023-02-01T01:20:58;-1.80;99.90
23869;DHT22;12115;47.128;15.422;2023-02-01T01:23:26;-1.80;99.90
23869;DHT22;12115;47.128;15.422;2023-02-01T01:25:54;-1.80;99.90
23869;DHT22;12115;47.128;15.422;2023-02-01T01:28:21;-1.80;99.90
23869;DHT22;12115;47.128;15.422;2023-02-01T01:30:48;-1.80;99.90
23869;DHT22;12115;47.128;15.422;2023-02-01T01:33:16;-1.80;99.90
23869;DHT22;12115;47.128;15.422;2023-02-01T01:35:43;-1.80;99.90
23869;DHT22;12115;47.128;15.422;2023-02-01T01:38:10;-1.80;99.90
23869;DHT22;12115;47.128;15.422;2023-02-01T01:40:38;-1.90;99.90
23869;DHT22;12115;47.128;15.422;2023-02-01T01:43:11;-1.90;99.90
23869;DHT22;12115;47.128;15.422;2023-02-01T01:45:40;-1.90;99.90
23869;DHT22;12115;47.128;15.422;2023-02-01T01:48:08;-1.80;99.90
23869;DHT22;12115;47.128;15.422;2023-02-01T01:50:47;-1.90;99.90
23869;DHT22;12115;47.128;15.422;2023-02-01T01:53:16;-1.90;99.90
23869;DHT22;12115;47.128;15.422;2023-02-01T01:55:45;-1.90;99.90
23869;DHT22;12115;47.128;15.422;2023-02-01T01:58:17;-1.90;99.90
23869;DHT22;12115;47.128;15.422;2023-02-01T02:00:45;-1.90;99.90
23869;DHT22;12115;47.128;15.422;2023-02-01T02:03:15;-1.90;99.90
23869;DHT22;12115;47.128;15.422;2023-02-01T02:05:45;-1.90;99.90
23869;DHT22;12115;47.128;15.422;2023-02-01T02:08:13;-1.90;99.90
23869;DHT22;12115;47.128;15.422;2023-02-01T02:10:40;-1.90;99.90
23869;DHT22;12115;47.128;15.422;2023-02-01T02:13:31;-1.90;99.90
23869;DHT22;12115;47.128;15.422;2023-02-01T02:18:57;-1.90;99.90
23869;DHT22;12115;47.128;15.422;2023-02-01T02:24:01;-2.00;99.90
23869;DHT22;12115;47.128;15.422;2023-02-01T02:26:38;-2.00;99.90
23869;DHT22;12115;47.128;15.422;2023-02-01T02:46:46;-2.10;99.90
23869;DHT22;12115;47.128;15.422;2023-02-01T02:49:36;-2.10;99.90
23869;DHT22;12115;47.128;15.422;2023-02-01T02:52:13;-2.10;99.90
23869;DHT22;12115;47.128;15.422;2023-02-01T02:55:02;-2.10;99.90
23869;DHT22;12115;47.128;15.422;2023-02-01T02:57:36;-2.20;99.90
23869;DHT22;12115;47.128;15.422;2023-02-01T03:00:32;-2.10;99.90
23869;DHT22;12115;47.128;15.422;2023-02-01T03:03:19;-2.10;99.90
23869;DHT22;12115;47.128;15.422;2023-02-01T03:06:07;-2.20;99.90
23869;DHT22;12115;47.128;15.422;2023-02-01T03:08:38;-2.20;99.90
23869;DHT22;12115;47.128;15.422;2023-02-01T03:11:06;-2.20;99.90
23869;DHT22;12115;47.128;15.422;2023-02-01T03:13:45;-2.20;99.90
23869;DHT22;12115;47.128;15.422;2023-02-01T03:16:22;-2.20;99.90
23869;DHT22;12115;47.128;15.422;2023-02-01T03:21:25;-2.20;99.90
23869;DHT22;12115;47.128;15.422;2023-02-01T03:23:53;-2.20;99.90
23869;DHT22;12115;47.128;15.422;2023-02-01T03:26:22;-2.20;99.90
23869;DHT22;12115;47.128;15.422;2023-02-01T03:29:05;-2.20;99.90
23869;DHT22;12115;47.128;15.422;2023-02-01T03:31:35;-2.30;99.90
23869;DHT22;12115;47.128;15.422;2023-02-01T03:34:02;-2.30;99.90
23869;DHT22;12115;47.128;15.422;2023-02-01T03:36:38;-2.30;99.90
23869;DHT22;12115;47.128;15.422;2023-02-01T03:39:10;-2.30;99.90
23869;DHT22;12115;47.128;15.422;2023-02-01T03:46:40;-2.30;99.90
23869;DHT22;12115;47.128;15.422;2023-02-01T03:49:13;-2.30;99.90
23869;DHT22;12115;47.128;15.422;2023-02-01T03:51:42;-2.30;99.90
23869;DHT22;12115;47.128;15.422;2023-02-01T03:54:11;-2.40;99.90
23869;DHT22;12115;47.128;15.422;2023-02-01T03:56:41;-2.40;99.90
23869;DHT22;12115;47.128;15.422;2023-02-01T03:59:11;-2.40;99.90
23869;DHT22;12115;47.128;15.422;2023-02-01T04:01:38;-2.40;99.90
23869;DHT22;12115;47.128;15.422;2023-02-01T04:04:06;-2.40;99.90
23869;DHT22;12115;47.128;15.422;2023-02-01T04:06:33;-2.40;99.90
23869;DHT22;12115;47.128;15.422;2023-02-01T04:09:02;-2.40;99.90
23869;DHT22;12115;47.128;15.422;2023-02-01T04:11:29;-2.40;99.90
23869;DHT22;12115;47.128;15.422;2023-02-01T04:13:57;-2.40;99.90
23869;DHT22;12115;47.128;15.422;2023-02-01T04:16:24;-2.40;99.90
23869;DHT22;12115;47.128;15.422;2023-02-01T04:18:51;-2.40;99.90
23869;DHT22;12115;47.128;15.422;2023-02-01T04:21:21;-2.50;99.90
23869;DHT22;12115;47.128;15.422;2023-02-01T04:23:48;-2.50;99.90
23869;DHT22;12115;47.128;15.422;2023-02-01T04:26:15;-2.60;99.90
23869;DHT22;12115;47.128;15.422;2023-02-01T04:28:43;-2.50;99.90
23869;DHT22;12115;47.128;15.422;2023-02-01T04:31:10;-2.50;99.90
23869;DHT22;12115;47.128;15.422;2023-02-01T04:33:37;-2.60;99.90
23869;DHT22;12115;47.128;15.422;2023-02-01T04:36:04;-2.50;99.90
23869;DHT22;12115;47.128;15.422;2023-02-01T04:38:31;-2.50;99.90
23869;DHT22;12115;47.128;15.422;2023-02-01T04:40:59;-2.60;99.90
23869;DHT22;12115;47.128;15.422;2023-02-01T04:43:26;-2.60;99.90
23869;DHT22;12115;47.128;15.422;2023-02-01T04:45:53;-2.60;99.90
23869;DHT22;12115;47.128;15.422;2023-02-01T04:48:20;-2.50;99.90
23869;DHT22;12115;47.128;15.422;2023-02-01T04:50:50;-2.60;99.90
23869;DHT22;12115;47.128;15.422;2023-02-01T04:53:17;-2.50;99.90
23869;DHT22;12115;47.128;15.422;2023-02-01T04:55:45;-2.60;99.90
23869;DHT22;12115;47.128;15.422;2023-02-01T04:58:14;-2.50;99.90
23869;DHT22;12115;47.128;15.422;2023-02-01T05:00:42;-2.60;99.90
23869;DHT22;12115;47.128;15.422;2023-02-01T05:03:09;-2.60;99.90
23869;DHT22;12115;47.128;15.422;2023-02-01T05:05:36;-2.60;99.90
23869;DHT22;12115;47.128;15.422;2023-02-01T05:08:03;-2.60;99.90
23869;DHT22;12115;47.128;15.422;2023-02-01T05:10:30;-2.60;99.90
23869;DHT22;12115;47.128;15.422;2023-02-01T05:12:57;-2.60;99.90
23869;DHT22;12115;47.128;15.422;2023-02-01T05:15:43;-2.70;99.90
23869;DHT22;12115;47.128;15.422;2023-02-01T05:18:10;-2.70;99.90
23869;DHT22;12115;47.128;15.422;2023-02-01T05:20:37;-2.70;99.90
23869;DHT22;12115;47.128;15.422;2023-02-01T05:23:04;-2.70;99.90
23869;DHT22;12115;47.128;15.422;2023-02-01T05:25:32;-2.60;99.90
23869;DHT22;12115;47.128;15.422;2023-02-01T05:27:59;-2.70;99.90
23869;DHT22;12115;47.128;15.422;2023-02-01T05:30:26;-2.60;99.90
23869;DHT22;12115;47.128;15.422;2023-02-01T05:32:53;-2.70;99.90
23869;DHT22;12115;47.128;15.422;2023-02-01T05:35:20;-2.60;99.90
23869;DHT22;12115;47.128;15.422;2023-02-01T05:37:48;-2.70;99.90
23869;DHT22;12115;47.128;15.422;2023-02-01T05:40:15;-2.60;99.90
23869;DHT22;12115;47.128;15.422;2023-02-01T05:42:42;-2.70;99.90
23869;DHT22;12115;47.128;15.422;2023-02-01T05:45:09;-2.60;99.90
23869;DHT22;12115;47.128;15.422;2023-02-01T05:47:36;-2.60;99.90
23869;DHT22;12115;47.128;15.422;2023-02-01T05:50:04;-2.70;99.90
23869;DHT22;12115;47.128;15.422;2023-02-01T05:52:31;-2.70;99.90
23869;DHT22;12115;47.128;15.422;2023-02-01T05:54:59;-2.70;99.90
23869;DHT22;12115;47.128;15.422;2023-02-01T05:57:26;-2.70;99.90
23869;DHT22;12115;47.128;15.422;2023-02-01T05:59:53;-2.60;99.90
23869;DHT22;12115;47.128;15.422;2023-02-01T06:02:20;-2.60;99.90
23869;DHT22;12115;47.128;15.422;2023-02-01T06:04:48;-2.70;99.90
23869;DHT22;12115;47.128;15.422;2023-02-01T06:07:15;-2.70;99.90
23869;DHT22;12115;47.128;15.422;2023-02-01T06:09:44;-2.60;99.90
23869;DHT22;12115;47.128;15.422;2023-02-01T06:12:11;-2.60;99.90
23869;DHT22;12115;47.128;15.422;2023-02-01T06:14:38;-2.60;99.90
23869;DHT22;12115;47.128;15.422;2023-02-01T06:17:05;-2.60;99.90
23869;DHT22;12115;47.128;15.422;2023-02-01T06:19:33;-2.60;99.90
23869;DHT22;12115;47.128;15.422;2023-02-01T06:22:00;-2.50;99.90
23869;DHT22;12115;47.128;15.422;2023-02-01T06:24:27;-2.50;99.90
23869;DHT22;12115;47.128;15.422;2023-02-01T06:26:54;-2.60;99.90
23869;DHT22;12115;47.128;15.422;2023-02-01T06:29:21;-2.60;99.90
23869;DHT22;12115;47.128;15.422;2023-02-01T06:31:48;-2.60;99.90
23869;DHT22;12115;47.128;15.422;2023-02-01T06:34:15;-2.50;99.90
23869;DHT22;12115;47.128;15.422;2023-02-01T06:36:42;-2.50;99.90
23869;DHT22;12115;47.128;15.422;2023-02-01T06:39:09;-2.60;99.90
23869;DHT22;12115;47.128;15.422;2023-02-01T06:41:39;-2.50;99.90
23869;DHT22;12115;47.128;15.422;2023-02-01T06:44:06;-2.50;99.90
23869;DHT22;12115;47.128;15.422;2023-02-01T06:46:34;-2.40;99.90
23869;DHT22;12115;47.128;15.422;2023-02-01T06:49:01;-2.50;99.90
23869;DHT22;12115;47.128;15.422;2023-02-01T06:51:28;-2.50;99.90
23869;DHT22;12115;47.128;15.422;2023-02-01T06:53:56;-2.50;99.90
23869;DHT22;12115;47.128;15.422;2023-02-01T06:56:24;-2.50;99.90
23869;DHT22;12115;47.128;15.422;2023-02-01T06:58:51;-2.30;99.90
23869;DHT22;12115;47.128;15.422;2023-02-01T07:01:18;-2.20;99.90
23869;DHT22;12115;47.128;15.422;2023-02-01T07:03:49;-2.10;99.90
23869;DHT22;12115;47.128;15.422;2023-02-01T07:06:18;-2.10;99.90
23869;DHT22;12115;47.128;15.422;2023-02-01T07:08:45;-2.00;99.90
23869;DHT22;12115;47.128;15.422;2023-02-01T07:11:13;-1.50;99.90
23869;DHT22;12115;47.128;15.422;2023-02-01T07:13:40;-0.80;99.90
23869;DHT22;12115;47.128;15.422;2023-02-01T07:16:11;-0.30;99.90
23869;DHT22;12115;47.128;15.422;2023-02-01T07:18:39;0.50;99.90
23869;DHT22;12115;47.128;15.422;2023-02-01T07:21:06;1.10;99.90
23869;DHT22;12115;47.128;15.422;2023-02-01T07:23:33;1.70;99.90
23869;DHT22;12115;47.128;15.422;2023-02-01T07:26:01;2.30;99.90
23869;DHT22;12115;47.128;15.422;2023-02-01T07:28:30;2.80;99.90
23869;DHT22;12115;47.128;15.422;2023-02-01T07:31:08;3.40;99.90
23869;DHT22;12115;47.128;15.422;2023-02-01T07:33:35;3.90;99.90
23869;DHT22;12115;47.128;15.422;2023-02-01T07:36:03;4.50;99.90
23869;DHT22;12115;47.128;15.422;2023-02-01T07:38:31;4.90;99.90
23869;DHT22;12115;47.128;15.422;2023-02-01T07:40:58;5.30;99.90
23869;DHT22;12115;47.128;15.422;2023-02-01T07:43:26;5.70;99.90
23869;DHT22;12115;47.128;15.422;2023-02-01T07:45:54;6.10;99.90
23869;DHT22;12115;47.128;15.422;2023-02-01T07:48:22;6.50;99.90
23869;DHT22;12115;47.128;15.422;2023-02-01T07:50:56;6.90;99.90
23869;DHT22;12115;47.128;15.422;2023-02-01T07:53:24;7.40;99.90
23869;DHT22;12115;47.128;15.422;2023-02-01T07:55:51;7.90;99.90
23869;DHT22;12115;47.128;15.422;2023-02-01T07:58:18;8.00;99.90
23869;DHT22;12115;47.128;15.422;2023-02-01T08:00:45;8.50;99.90
23869;DHT22;12115;47.128;15.422;2023-02-01T08:03:31;9.00;98.80
23869;DHT22;12115;47.128;15.422;2023-02-01T08:05:58;9.00;99.10
23869;DHT22;12115;47.128;15.422;2023-02-01T08:08:25;8.20;98.70
23869;DHT22;12115;47.128;15.422;2023-02-01T08:11:02;8.70;99.70
23869;DHT22;12115;47.128;15.422;2023-02-01T08:13:30;8.40;99.20
23869;DHT22;12115;47.128;15.422;2023-02-01T08:15:58;7.50;99.60
23869;DHT22;12115;47.128;15.422;2023-02-01T08:18:25;6.70;99.90
23869;DHT22;12115;47.128;15.422;2023-02-01T08:20:53;5.90;99.90
23869;DHT22;12115;47.128;15.422;2023-02-01T08:23:20;5.50;99.90
23869;DHT22;12115;47.128;15.422;2023-02-01T08:25:47;5.20;99.90
23869;DHT22;12115;47.128;15.422;2023-02-01T08:28:15;4.90;99.90
23869;DHT22;12115;47.128;15.422;2023-02-01T08:30:42;4.70;99.90
23869;DHT22;12115;47.128;15.422;2023-02-01T08:33:09;4.30;99.90
23869;DHT22;12115;47.128;15.422;2023-02-01T08:35:37;4.10;99.90
23869;DHT22;12115;47.128;15.422;2023-02-01T08:38:10;3.90;99.90
23869;DHT22;12115;47.128;15.422;2023-02-01T08:40:37;3.80;99.90
23869;DHT22;12115;47.128;15.422;2023-02-01T08:43:04;3.70;99.90
23869;DHT22;12115;47.128;15.422;2023-02-01T08:45:31;3.60;99.90
23869;DHT22;12115;47.128;15.422;2023-02-01T08:47:59;4.00;99.90
23869;DHT22;12115;47.128;15.422;2023-02-01T08:50:27;4.30;99.90
23869;DHT22;12115;47.128;15.422;2023-02-01T08:52:54;5.10;99.90
23869;DHT22;12115;47.128;15.422;2023-02-01T08:55:21;5.40;99.90
23869;DHT22;12115;47.128;15.422;2023-02-01T08:57:48;5.50;99.90
23869;DHT22;12115;47.128;15.422;2023-02-01T09:00:16;6.20;99.90
23869;DHT22;12115;47.128;15.422;2023-02-01T09:02:44;6.60;99.90
23869;DHT22;12115;47.128;15.422;2023-02-01T09:05:11;7.30;99.90
23869;DHT22;12115;47.128;15.422;2023-02-01T09:07:38;7.80;99.90
23869;DHT22;12115;47.128;15.422;2023-02-01T09:10:05;8.70;99.90
23869;DHT22;12115;47.128;15.422;2023-02-01T09:12:33;9.60;99.90
23869;DHT22;12115;47.128;15.422;2023-02-01T09:15:01;10.10;99.20
23869;DHT22;12115;47.128;15.422;2023-02-01T09:17:28;10.60;96.50
23869;DHT22;12115;47.128;15.422;2023-02-01T09:19:56;10.80;94.40
23869;DHT22;12115;47.128;15.422;2023-02-01T09:22:23;11.00;93.60
23869;DHT22;12115;47.128;15.422;2023-02-01T09:24:52;11.20;93.00
23869;DHT22;12115;47.128;15.422;2023-02-01T09:27:21;11.60;92.00
23869;DHT22;12115;47.128;15.422;2023-02-01T09:29:48;12.10;91.90
23869;DHT22;12115;47.128;15.422;2023-02-01T09:32:22;12.10;90.10
23869;DHT22;12115;47.128;15.422;2023-02-01T09:34:51;12.10;90.60
23869;DHT22;12115;47.128;15.422;2023-02-01T09:37:19;11.80;89.70
23869;DHT22;12115;47.128;15.422;2023-02-01T09:39:46;12.40;89.00
23869;DHT22;12115;47.128;15.422;2023-02-01T09:47:27;13.40;82.90
23869;DHT22;12115;47.128;15.422;2023-02-01T09:49:56;13.10;77.50
23869;DHT22;12115;47.128;15.422;2023-02-01T09:52:29;13.40;80.20
23869;DHT22;12115;47.128;15.422;2023-02-01T09:54:59;13.80;77.60
23869;DHT22;12115;47.128;15.422;2023-02-01T10:00:04;13.80;78.20
23869;DHT22;12115;47.128;15.422;2023-02-01T10:02:38;14.00;78.10
23869;DHT22;12115;47.128;15.422;2023-02-01T10:05:11;14.40;76.40
23869;DHT22;12115;47.128;15.422;2023-02-01T10:28:27;15.80;72.10
23869;DHT22;12115;47.128;15.422;2023-02-01T10:30:56;16.40;69.20
23869;DHT22;12115;47.128;15.422;2023-02-01T10:33:25;16.20;65.90
23869;DHT22;12115;47.128;15.422;2023-02-01T10:36:01;15.90;68.60
23869;DHT22;12115;47.128;15.422;2023-02-01T10:38:32;16.30;67.90
23869;DHT22;12115;47.128;15.422;2023-02-01T10:41:07;17.50;66.70
23869;DHT22;12115;47.128;15.422;2023-02-01T10:43:38;18.60;65.10
23869;DHT22;12115;47.128;15.422;2023-02-01T10:46:06;19.10;61.20
23869;DHT22;12115;47.128;15.422;2023-02-01T10:48:34;19.90;61.00
23869;DHT22;12115;47.128;15.422;2023-02-01T10:51:24;20.60;58.60
23869;DHT22;12115;47.128;15.422;2023-02-01T10:54:08;21.00;54.20
23869;DHT22;12115;47.128;15.422;2023-02-01T10:56:38;21.50;55.80
23869;DHT22;12115;47.128;15.422;2023-02-01T10:59:06;22.00;52.80
23869;DHT22;12115;47.128;15.422;2023-02-01T11:01:34;21.30;51.40
23869;DHT22;12115;47.128;15.422;2023-02-01T11:04:03;19.70;54.70
23869;DHT22;12115;47.128;15.422;2023-02-01T11:06:34;19.90;54.80
23869;DHT22;12115;47.128;15.422;2023-02-01T11:09:16;19.20;57.00
23869;DHT22;12115;47.128;15.422;2023-02-01T11:14:16;17.80;53.90
23869;DHT22;12115;47.128;15.422;2023-02-01T11:16:48;16.50;59.80
23869;DHT22;12115;47.128;15.422;2023-02-01T11:19:16;15.60;61.00
23869;DHT22;12115;47.128;15.422;2023-02-01T11:21:44;18.50;54.10
23869;DHT22;12115;47.128;15.422;2023-02-01T11:24:19;20.80;51.70
23869;DHT22;12115;47.128;15.422;2023-02-01T11:26:49;22.90;48.90
23869;DHT22;12115;47.128;15.422;2023-02-01T11:29:17;24.10;46.50
23869;DHT22;12115;47.128;15.422;2023-02-01T11:31:47;23.30;44.40
23869;DHT22;12115;47.128;15.422;2023-02-01T11:34:15;22.40;45.30
23869;DHT22;12115;47.128;15.422;2023-02-01T11:36:45;22.40;45.30
23869;DHT22;12115;47.128;15.422;2023-02-01T11:44:28;18.40;48.30
23869;DHT22;12115;47.128;15.422;2023-02-01T11:47:16;19.20;49.70
23869;DHT22;12115;47.128;15.422;2023-02-01T11:49:44;18.80;49.90
23869;DHT22;12115;47.128;15.422;2023-02-01T11:52:25;17.40;52.70
23869;DHT22;12115;47.128;15.422;2023-02-01T12:00:38;14.90;56.10
23869;DHT22;12115;47.128;15.422;2023-02-01T12:09:02;14.60;59.10
23869;DHT22;12115;47.128;15.422;2023-02-01T12:37:04;13.70;55.80
23869;DHT22;12115;47.128;15.422;2023-02-01T12:42:41;13.30;55.10
23869;DHT22;12115;47.128;15.422;2023-02-01T12:45:12;13.30;55.70
23869;DHT22;12115;47.128;15.422;2023-02-01T12:52:40;12.60;56.20
23869;DHT22;12115;47.128;15.422;2023-02-01T12:55:22;12.70;55.30
23869;DHT22;12115;47.128;15.422;2023-02-01T12:57:52;12.70;55.70
23869;DHT22;12115;47.128;15.422;2023-02-01T13:08:14;12.30;56.40
23869;DHT22;12115;47.128;15.422;2023-02-01T13:10:45;12.10;56.40
23869;DHT22;12115;47.128;15.422;2023-02-01T13:15:44;11.80;57.00
23869;DHT22;12115;47.128;15.422;2023-02-01T13:18:19;11.60;56.90
23869;DHT22;12115;47.128;15.422;2023-02-01T13:20:49;11.60;57.30
23869;DHT22;12115;47.128;15.422;2023-02-01T13:25:53;11.20;57.40
23869;DHT22;12115;47.128;15.422;2023-02-01T13:33:56;11.40;59.60
23869;DHT22;12115;47.128;15.422;2023-02-01T13:41:51;11.20;61.70
23869;DHT22;12115;47.128;15.422;2023-02-01T13:44:22;11.30;63.30
23869;DHT22;12115;47.128;15.422;2023-02-01T13:46:53;11.30;63.00
23869;DHT22;12115;47.128;15.422;2023-02-01T13:49:25;11.10;63.10
23869;DHT22;12115;47.128;15.422;2023-02-01T13:51:53;11.20;63.50
23869;DHT22;12115;47.128;15.422;2023-02-01T13:54:26;11.10;63.20
23869;DHT22;12115;47.128;15.422;2023-02-01T13:56:54;10.90;62.50
23869;DHT22;12115;47.128;15.422;2023-02-01T14:04:53;10.80;65.70
23869;DHT22;12115;47.128;15.422;2023-02-01T14:07:21;10.70;65.60
23869;DHT22;12115;47.128;15.422;2023-02-01T14:09:49;10.60;66.40
23869;DHT22;12115;47.128;15.422;2023-02-01T14:17:44;10.50;67.60
23869;DHT22;12115;47.128;15.422;2023-02-01T14:23:01;10.40;67.20
23869;DHT22;12115;47.128;15.422;2023-02-01T14:25:32;10.30;67.80
23869;DHT22;12115;47.128;15.422;2023-02-01T14:28:00;10.30;67.60
23869;DHT22;12115;47.128;15.422;2023-02-01T14:30:27;10.10;68.10
23869;DHT22;12115;47.128;15.422;2023-02-01T14:32:54;10.20;68.50
23869;DHT22;12115;47.128;15.422;2023-02-01T14:35:24;10.00;68.50
23869;DHT22;12115;47.128;15.422;2023-02-01T14:37:53;10.00;69.50
23869;DHT22;12115;47.128;15.422;2023-02-01T14:40:25;9.90;68.20
23869;DHT22;12115;47.128;15.422;2023-02-01T14:42:53;9.90;68.50
23869;DHT22;12115;47.128;15.422;2023-02-01T14:52:47;9.80;68.60
23869;DHT22;12115;47.128;15.422;2023-02-01T14:55:29;9.80;68.20
23869;DHT22;12115;47.128;15.422;2023-02-01T14:57:57;9.80;68.50
23869;DHT22;12115;47.128;15.422;2023-02-01T15:00:27;9.70;69.00
23869;DHT22;12115;47.128;15.422;2023-02-01T15:02:56;9.70;68.60
23869;DHT22;12115;47.128;15.422;2023-02-01T15:05:38;9.60;68.20
23869;DHT22;12115;47.128;15.422;2023-02-01T15:08:25;9.60;68.30
23869;DHT22;12115;47.128;15.422;2023-02-01T15:10:53;9.50;68.10
23869;DHT22;12115;47.128;15.422;2023-02-01T15:13:22;9.40;68.90
23869;DHT22;12115;47.128;15.422;2023-02-01T15:16:03;9.20;68.90
23869;DHT22;12115;47.128;15.422;2023-02-01T15:18:31;9.10;69.30
23869;DHT22;12115;47.128;15.422;2023-02-01T15:20:59;9.10;69.70
23869;DHT22;12115;47.128;15.422;2023-02-01T15:23:46;9.10;69.50
23869;DHT22;12115;47.128;15.422;2023-02-01T15:26:28;9.10;69.80
23869;DHT22;12115;47.128;15.422;2023-02-01T15:28:58;9.10;69.70
23869;DHT22;12115;47.128;15.422;2023-02-01T15:31:39;9.10;69.70
23869;DHT22;12115;47.128;15.422;2023-02-01T15:34:07;9.10;69.80
23869;DHT22;12115;47.128;15.422;2023-02-01T15:36:34;9.10;69.70
23869;DHT22;12115;47.128;15.422;2023-02-01T15:39:23;9.00;70.80
23869;DHT22;12115;47.128;15.422;2023-02-01T15:41:53;8.90;70.80
23869;DHT22;12115;47.128;15.422;2023-02-01T15:46:49;8.80;70.30
23869;DHT22;12115;47.128;15.422;2023-02-01T15:51:53;8.80;71.10
23869;DHT22;12115;47.128;15.422;2023-02-01T15:54:28;8.80;70.50
23869;DHT22;12115;47.128;15.422;2023-02-01T15:56:58;8.70;70.40
23869;DHT22;12115;47.128;15.422;2023-02-01T15:59:45;8.70;71.00
23869;DHT22;12115;47.128;15.422;2023-02-01T16:04:59;8.60;71.00
23869;DHT22;12115;47.128;15.422;2023-02-01T16:07:28;8.50;70.80
23869;DHT22;12115;47.128;15.422;2023-02-01T16:09:59;8.60;70.90
23869;DHT22;12115;47.128;15.422;2023-02-01T16:12:34;8.40;71.70
23869;DHT22;12115;47.128;15.422;2023-02-01T16:15:13;8.40;72.00
23869;DHT22;12115;47.128;15.422;2023-02-01T16:17:40;8.30;72.30
23869;DHT22;12115;47.128;15.422;2023-02-01T16:20:07;8.30;71.10
23869;DHT22;12115;47.128;15.422;2023-02-01T16:22:35;8.30;70.60
23869;DHT22;12115;47.128;15.422;2023-02-01T16:25:03;8.30;70.70
23869;DHT22;12115;47.128;15.422;2023-02-01T16:27:30;8.20;70.50
23869;DHT22;12115;47.128;15.422;2023-02-01T16:29:58;8.20;71.10
23869;DHT22;12115;47.128;15.422;2023-02-01T16:32:25;8.20;71.10
23869;DHT22;12115;47.128;15.422;2023-02-01T16:34:53;8.20;71.10
23869;DHT22;12115;47.128;15.422;2023-02-01T16:37:21;8.00;71.70
23869;DHT22;12115;47.128;15.422;2023-02-01T16:39:49;8.00;71.80
23869;DHT22;12115;47.128;15.422;2023-02-01T16:42:16;7.90;72.70
23869;DHT22;12115;47.128;15.422;2023-02-01T16:44:44;7.90;72.00
23869;DHT22;12115;47.128;15.422;2023-02-01T16:47:30;7.90;71.80
23869;DHT22;12115;47.128;15.422;2023-02-01T16:50:17;7.90;72.30
23869;DHT22;12115;47.128;15.422;2023-02-01T16:53:03;7.90;72.10
23869;DHT22;12115;47.128;15.422;2023-02-01T16:55:53;7.90;72.60
23869;DHT22;12115;47.128;15.422;2023-02-01T16:58:41;7.80;72.90
23869;DHT22;12115;47.128;15.422;2023-02-01T17:01:14;7.70;73.50
23869;DHT22;12115;47.128;15.422;2023-02-01T17:03:46;7.60;73.80
23869;DHT22;12115;47.128;15.422;2023-02-01T17:06:22;7.60;74.00
23869;DHT22;12115;47.128;15.422;2023-02-01T17:09:00;7.70;73.50
23869;DHT22;12115;47.128;15.422;2023-02-01T17:12:24;7.60;74.10
23869;DHT22;12115;47.128;15.422;2023-02-01T17:15:52;7.60;74.40
23869;DHT22;12115;47.128;15.422;2023-02-01T17:18:38;7.50;74.00
23869;DHT22;12115;47.128;15.422;2023-02-01T17:21:18;7.50;73.60
23869;DHT22;12115;47.128;15.422;2023-02-01T17:24:28;7.50;74.50
23869;DHT22;12115;47.128;15.422;2023-02-01T17:31:24;7.40;74.50
23869;DHT22;12115;47.128;15.422;2023-02-01T17:34:10;7.20;74.70
23869;DHT22;12115;47.128;15.422;2023-02-01T17:36:55;7.30;75.00
23869;DHT22;12115;47.128;15.422;2023-02-01T17:39:35;7.20;76.30
23869;DHT22;12115;47.128;15.422;2023-02-01T17:42:35;7.10;75.70
23869;DHT22;12115;47.128;15.422;2023-02-01T17:45:16;7.10;75.40
23869;DHT22;12115;47.128;15.422;2023-02-01T17:47:54;7.00;76.00
23869;DHT22;12115;47.128;15.422;2023-02-01T17:50:29;7.00;76.00
23869;DHT22;12115;47.128;15.422;2023-02-01T17:53:06;6.90;75.90
23869;DHT22;12115;47.128;15.422;2023-02-01T17:55:43;6.90;76.20
23869;DHT22;12115;47.128;15.422;2023-02-01T18:02:25;6.80;76.50
23869;DHT22;12115;47.128;15.422;2023-02-01T18:05:53;6.70;76.50
23869;DHT22;12115;47.128;15.422;2023-02-01T18:09:26;6.60;77.60
23869;DHT22;12115;47.128;15.422;2023-02-01T18:12:46;6.50;77.90
23869;DHT22;12115;47.128;15.422;2023-02-01T18:16:40;6.40;78.70
23869;DHT22;12115;47.128;15.422;2023-02-01T18:19:59;6.40;78.70
23869;DHT22;12115;47.128;15.422;2023-02-01T18:23:20;6.30;78.60
23869;DHT22;12115;47.128;15.422;2023-02-01T18:26:42;6.20;79.40
23869;DHT22;12115;47.128;15.422;2023-02-01T18:29:55;6.20;78.90
23869;DHT22;12115;47.128;15.422;2023-02-01T18:40:33;5.90;80.90
23869;DHT22;12115;47.128;15.422;2023-02-01T18:46:49;5.90;80.40
23869;DHT22;12115;47.128;15.422;2023-02-01T18:49:48;5.80;80.60
23869;DHT22;12115;47.128;15.422;2023-02-01T18:53:06;5.80;80.80
23869;DHT22;12115;47.128;15.422;2023-02-01T18:55:50;5.70;82.00
23869;DHT22;12115;47.128;15.422;2023-02-01T18:58:34;5.60;82.90
23869;DHT22;12115;47.128;15.422;2023-02-01T19:01:43;5.40;83.50